createdAt,value
2023-04-26T00:02:05.240Z,99864.59
2023-04-26T00:04:34.380Z,99861.53
2023-04-26T00:07:01.971Z,99861.69
2023-04-26T00:09:29.780Z,99815.72
2023-04-26T00:11:57.779Z,99859.84
2023-04-26T00:14:25.435Z,99860.25
2023-04-26T00:16:52.983Z,99864.78
2023-04-26T00:19:21.455Z,99861.34
2023-04-26T00:21:49.011Z,99857.91
2023-04-26T00:24:16.482Z,99851.84
2023-04-26T00:26:44.281Z,99857.44
2023-04-26T00:29:11.791Z,99862.41
2023-04-26T00:31:40.513Z,99867.91
2023-04-26T00:34:08.298Z,99863.16
2023-04-26T00:36:35.834Z,99865.75
2023-04-26T00:39:03.401Z,99857.91
2023-04-26T00:41:31.709Z,99859.38
2023-04-26T00:43:59.243Z,99809.47
2023-04-26T00:46:28.917Z,99813.34
2023-04-26T00:48:57.496Z,99865.88
2023-04-26T00:51:24.989Z,99869.31
2023-04-26T00:53:52.518Z,99864.34
2023-04-26T00:56:22.185Z,99867.22
2023-04-26T00:58:50.004Z,99869.41
2023-04-26T01:01:17.877Z,99867.62
2023-04-26T01:03:46.958Z,99865.81
2023-04-26T01:06:14.580Z,99869.66
2023-04-26T01:08:42.103Z,99820.44
2023-04-26T01:11:10.747Z,99873.06
2023-04-26T01:13:38.644Z,99878.28
2023-04-26T01:16:08.479Z,99873.81
2023-04-26T01:18:36.355Z,99870.78
2023-04-26T01:21:05.123Z,99869.56
2023-04-26T01:23:32.851Z,99874.97
2023-04-26T01:26:00.701Z,99879.31
2023-04-26T01:28:28.835Z,99832.47
2023-04-26T01:30:56.947Z,99884.78
2023-04-26T01:33:24.754Z,99883.00
2023-04-26T01:35:52.663Z,99856.06
2023-04-26T01:38:20.793Z,99885.84
2023-04-26T01:40:48.730Z,99881.28
2023-04-26T01:43:18.461Z,99884.34
2023-04-26T01:45:49.059Z,99888.75
2023-04-26T01:48:29.476Z,99847.28
2023-04-26T01:50:57.220Z,99890.59
2023-04-26T01:53:24.911Z,99895.69
2023-04-26T01:55:52.670Z,99893.41
2023-04-26T01:58:20.158Z,99899.16
2023-04-26T02:00:47.893Z,99894.03
2023-04-26T02:03:16.894Z,99895.06
2023-04-26T02:05:44.472Z,99895.06
2023-04-26T02:08:12.411Z,99905.66
2023-04-26T02:10:40.166Z,99902.00
2023-04-26T02:13:10.854Z,99854.53
2023-04-26T02:15:38.371Z,99907.69
2023-04-26T02:18:06.396Z,99904.56
2023-04-26T02:20:34.074Z,99906.34
2023-04-26T02:23:01.571Z,99896.31
2023-04-26T02:25:29.390Z,99902.03
2023-04-26T02:27:57.617Z,99899.19
2023-04-26T02:30:25.404Z,99908.13
2023-04-26T02:32:54.614Z,99864.41
2023-04-26T02:35:22.992Z,99913.50
2023-04-26T02:37:52.333Z,99914.63
2023-04-26T02:40:20.509Z,99911.56
2023-04-26T02:42:48.904Z,99915.47
2023-04-26T02:45:16.406Z,99874.16
2023-04-26T02:47:43.952Z,99919.59
2023-04-26T02:50:12.271Z,99868.88
2023-04-26T02:52:39.910Z,99924.13
2023-04-26T02:55:08.140Z,99920.47
2023-04-26T02:57:36.030Z,99918.50
2023-04-26T03:00:05.523Z,99931.31
2023-04-26T03:02:33.713Z,99929.25
2023-04-26T03:05:02.297Z,99880.63
2023-04-26T03:07:31.448Z,99925.81
2023-04-26T03:09:59.036Z,99932.44
2023-04-26T03:12:27.012Z,99891.41
2023-04-26T03:14:54.510Z,99945.78
2023-04-26T03:17:24.271Z,99947.87
2023-04-26T03:19:52.601Z,99950.13
2023-04-26T03:22:21.191Z,99904.59
2023-04-26T03:24:49.290Z,99954.03
2023-04-26T03:27:17.322Z,99957.16
2023-04-26T03:29:44.953Z,99960.88
2023-04-26T03:32:12.444Z,99967.81
2023-04-26T03:34:40.353Z,99968.59
2023-04-26T03:37:07.924Z,99977.06
2023-04-26T03:39:36.671Z,99975.69
2023-04-26T03:42:04.568Z,99981.34
2023-04-26T03:44:34.015Z,99982.72
2023-04-26T03:47:01.583Z,99979.28
2023-04-26T03:49:29.851Z,99992.91
2023-04-26T03:51:57.469Z,99939.37
2023-04-26T03:54:25.027Z,99990.44
2023-04-26T03:56:52.755Z,99989.09
2023-04-26T03:59:20.636Z,99996.44
2023-04-26T04:01:48.554Z,99993.66
2023-04-26T04:04:17.379Z,100005.12
2023-04-26T04:06:45.470Z,100004.19
2023-04-26T04:09:13.198Z,100007.13
2023-04-26T04:11:41.350Z,100023.03
2023-04-26T04:14:08.861Z,100016.69
2023-04-26T04:16:36.497Z,100018.09
2023-04-26T04:19:05.148Z,100030.94
2023-04-26T04:21:33.208Z,100018.34
2023-04-26T04:24:00.888Z,100035.28
2023-04-26T04:26:28.675Z,100031.81
2023-04-26T04:28:57.347Z,100033.19
2023-04-26T04:31:24.932Z,100014.03
2023-04-26T04:33:53.120Z,100044.00
2023-04-26T04:36:20.987Z,100045.34
2023-04-26T04:38:48.494Z,100046.31
2023-04-26T04:41:16.884Z,100046.75
2023-04-26T04:43:44.833Z,100059.72
2023-04-26T04:46:13.181Z,100064.00
2023-04-26T04:48:43.258Z,100064.56
2023-04-26T04:51:10.819Z,100074.06
2023-04-26T04:53:38.476Z,100073.38
2023-04-26T04:56:06.618Z,100080.44
2023-04-26T04:58:34.500Z,100083.75
2023-04-26T05:01:02.731Z,100094.09
2023-04-26T05:03:32.110Z,100084.59
2023-04-26T05:06:00.622Z,100098.94
2023-04-26T05:08:28.265Z,100094.50
2023-04-26T05:10:57.238Z,100100.03
2023-04-26T05:13:24.836Z,100105.53
2023-04-26T05:15:52.298Z,100105.53
2023-04-26T05:18:20.244Z,100116.72
2023-04-26T05:20:47.874Z,100120.06
2023-04-26T05:23:15.648Z,100114.13
2023-04-26T05:25:43.453Z,100072.69
2023-04-26T05:28:14.424Z,100113.44
2023-04-26T05:30:42.239Z,100117.59
2023-04-26T05:33:11.092Z,100115.09
2023-04-26T05:35:39.993Z,100131.53
2023-04-26T05:38:07.601Z,100128.91
2023-04-26T05:40:36.266Z,100118.37
2023-04-26T05:43:04.000Z,100085.63
2023-04-26T05:45:32.014Z,100063.50
2023-04-26T05:48:01.189Z,100135.59
2023-04-26T05:50:29.825Z,100138.03
2023-04-26T05:52:58.976Z,100142.72
2023-04-26T05:55:30.869Z,100141.44
2023-04-26T05:57:58.809Z,100135.34
2023-04-26T06:00:26.557Z,100101.69
2023-04-26T06:02:54.816Z,100141.97
2023-04-26T06:05:23.121Z,100104.41
2023-04-26T06:07:51.964Z,100147.72
2023-04-26T06:10:20.049Z,100104.09
2023-04-26T06:12:47.983Z,100144.91
2023-04-26T06:15:16.445Z,100143.09
2023-04-26T06:17:44.749Z,100149.19
2023-04-26T06:20:12.483Z,100166.13
2023-04-26T06:22:40.071Z,100167.53
2023-04-26T06:25:08.950Z,100161.69
2023-04-26T06:27:36.599Z,100166.56
2023-04-26T06:30:05.039Z,100168.19
2023-04-26T06:32:35.563Z,100117.41
2023-04-26T06:35:03.293Z,100174.06
2023-04-26T06:37:31.765Z,100174.41
2023-04-26T06:39:59.629Z,100170.56
2023-04-26T06:42:27.141Z,100178.84
2023-04-26T06:44:55.119Z,100173.91
2023-04-26T06:47:22.928Z,100125.66
2023-04-26T06:49:50.818Z,100180.31
2023-04-26T06:52:19.471Z,100183.75
2023-04-26T06:54:56.689Z,100188.66
2023-04-26T06:57:25.184Z,100172.34
2023-04-26T06:59:53.073Z,100189.31
2023-04-26T07:02:23.108Z,100194.53
2023-04-26T07:04:51.359Z,100190.47
2023-04-26T07:07:19.482Z,100192.13
2023-04-26T07:09:47.493Z,100191.19
2023-04-26T07:12:15.183Z,100187.31
2023-04-26T07:14:43.462Z,100192.84
2023-04-26T07:17:11.116Z,100197.25
2023-04-26T07:19:39.144Z,100161.06
2023-04-26T07:22:07.263Z,100201.44
2023-04-26T07:24:34.868Z,100187.47
2023-04-26T07:27:03.514Z,100201.16
2023-04-26T07:29:31.979Z,100168.44
2023-04-26T07:31:59.541Z,100207.78
2023-04-26T07:34:27.173Z,100208.03
2023-04-26T07:36:54.954Z,100155.50
2023-04-26T07:39:22.947Z,100198.72
2023-04-26T07:41:50.929Z,100207.75
2023-04-26T07:44:18.748Z,100213.16
2023-04-26T07:46:46.507Z,100167.41
2023-04-26T07:49:14.015Z,100210.09
2023-04-26T07:51:44.386Z,100212.34
2023-04-26T07:54:11.871Z,100208.53
2023-04-26T07:56:39.523Z,100212.97
2023-04-26T07:59:07.735Z,100216.37
2023-04-26T08:01:35.389Z,100215.62
2023-04-26T08:04:04.259Z,100219.03
2023-04-26T08:06:33.333Z,100214.41
2023-04-26T08:09:00.838Z,100217.53
2023-04-26T08:11:28.649Z,100215.31
2023-04-26T08:13:56.200Z,100221.38
2023-04-26T08:16:23.682Z,100193.34
2023-04-26T08:18:51.934Z,100228.50
2023-04-26T08:21:20.008Z,100228.53
2023-04-26T08:23:47.460Z,100189.37
2023-04-26T08:26:15.418Z,100229.75
2023-04-26T08:28:43.066Z,100225.16
2023-04-26T08:31:10.561Z,100229.12
2023-04-26T08:33:38.572Z,100226.84
2023-04-26T08:36:06.485Z,100235.91
2023-04-26T08:38:34.356Z,100175.59
2023-04-26T08:41:04.341Z,100231.94
2023-04-26T08:43:36.115Z,100190.16
2023-04-26T08:46:08.710Z,100236.41
2023-04-26T08:48:37.741Z,100228.31
2023-04-26T08:51:07.539Z,100200.22
2023-04-26T08:53:36.034Z,100236.06
2023-04-26T08:56:04.991Z,100230.44
2023-04-26T08:58:32.971Z,100224.19
2023-04-26T09:01:03.524Z,100232.78
2023-04-26T09:03:31.509Z,100183.19
2023-04-26T09:06:03.853Z,100225.34
2023-04-26T09:08:35.589Z,100238.06
2023-04-26T09:11:03.963Z,100202.53
2023-04-26T09:13:31.466Z,100245.16
2023-04-26T09:15:59.111Z,100241.00
2023-04-26T09:18:27.080Z,100195.75
2023-04-26T09:21:06.788Z,100199.38
2023-04-26T09:23:35.408Z,100245.31
2023-04-26T09:26:19.520Z,100235.38
2023-04-26T09:28:48.187Z,100235.84
2023-04-26T09:31:37.626Z,100253.59
2023-04-26T09:34:06.089Z,100227.72
2023-04-26T09:36:46.182Z,100241.81
2023-04-26T09:39:14.888Z,100218.31
2023-04-26T09:41:44.755Z,100238.84
2023-04-26T09:44:25.604Z,100240.37
2023-04-26T09:47:10.916Z,100242.66
2023-04-26T09:49:51.852Z,100212.22
2023-04-26T09:52:20.629Z,100252.41
2023-04-26T09:54:53.218Z,100247.91
2023-04-26T09:57:23.663Z,100200.06
2023-04-26T09:59:55.585Z,100254.50
2023-04-26T10:02:28.046Z,100237.75
2023-04-26T10:04:57.339Z,100265.09
2023-04-26T10:07:26.019Z,100248.75
2023-04-26T10:09:53.721Z,100239.28
2023-04-26T10:12:21.682Z,100228.94
2023-04-26T10:14:49.237Z,100232.25
2023-04-26T10:17:19.181Z,100239.22
2023-04-26T10:19:49.962Z,100237.47
2023-04-26T10:22:22.367Z,100240.72
2023-04-26T10:24:50.754Z,100217.41
2023-04-26T10:27:44.427Z,100192.09
2023-04-26T10:30:14.457Z,100241.97
2023-04-26T10:32:57.455Z,100208.25
2023-04-26T10:35:27.265Z,100232.63
2023-04-26T10:38:00.860Z,100240.69
2023-04-26T10:40:31.514Z,100243.78
2023-04-26T10:43:18.951Z,100248.59
2023-04-26T10:45:47.966Z,100254.16
2023-04-26T10:48:23.660Z,100209.72
2023-04-26T10:51:02.446Z,100253.87
2023-04-26T10:53:45.619Z,100248.69
2023-04-26T10:56:25.723Z,100250.34
2023-04-26T10:59:28.421Z,100245.28
2023-04-26T11:02:00.781Z,100247.41
2023-04-26T11:04:51.897Z,100250.25
2023-04-26T11:07:39.081Z,100236.53
2023-04-26T11:10:10.908Z,100240.69
2023-04-26T11:12:42.418Z,100252.78
2023-04-26T11:15:12.896Z,100255.28
2023-04-26T11:17:40.730Z,100210.25
2023-04-26T11:20:16.425Z,100250.13
2023-04-26T11:22:44.235Z,100255.19
2023-04-26T11:25:13.826Z,100246.25
2023-04-26T11:27:44.379Z,100239.56
2023-04-26T11:30:12.897Z,100203.28
2023-04-26T11:32:46.248Z,100238.34
2023-04-26T11:35:15.870Z,100246.22
2023-04-26T11:37:45.696Z,100244.81
2023-04-26T11:40:16.980Z,100207.72
2023-04-26T11:42:45.823Z,100246.31
2023-04-26T11:45:16.465Z,100239.03
2023-04-26T11:47:45.293Z,100234.91
2023-04-26T11:50:14.033Z,100237.31
2023-04-26T11:52:41.861Z,100222.06
2023-04-26T11:55:10.456Z,100241.03
2023-04-26T11:57:38.323Z,100248.59
2023-04-26T12:00:17.192Z,100241.03
2023-04-26T12:02:46.985Z,100240.00
2023-04-26T12:05:30.661Z,100195.06
2023-04-26T12:08:00.392Z,100226.97
2023-04-26T12:10:31.158Z,100236.81
2023-04-26T12:13:00.029Z,100238.03
2023-04-26T12:15:32.663Z,100204.13
2023-04-26T12:18:01.610Z,100235.16
2023-04-26T12:20:31.355Z,100231.31
2023-04-26T12:23:00.431Z,100236.38
2023-04-26T12:25:29.322Z,100236.69
2023-04-26T12:27:57.013Z,100238.62
2023-04-26T12:30:26.421Z,100236.22
2023-04-26T12:33:15.545Z,100226.56
2023-04-26T12:35:44.999Z,100236.22
2023-04-26T12:38:13.399Z,100230.37
2023-04-26T12:40:42.573Z,100234.88
2023-04-26T12:43:10.110Z,100230.03
2023-04-26T12:45:37.918Z,100199.87
2023-04-26T12:48:06.488Z,100239.72
2023-04-26T12:50:34.012Z,100206.56
2023-04-26T12:53:01.715Z,100244.28
2023-04-26T12:55:31.279Z,100238.38
2023-04-26T12:58:00.737Z,100248.13
2023-04-26T13:00:29.650Z,100238.62
2023-04-26T13:02:57.288Z,100190.44
2023-04-26T13:05:25.488Z,100227.00
2023-04-26T13:07:53.456Z,100235.75
2023-04-26T13:10:21.169Z,100227.50
2023-04-26T13:12:48.632Z,100232.97
2023-04-26T13:15:17.786Z,100245.00
2023-04-26T13:17:45.863Z,100253.38
2023-04-26T13:20:13.876Z,100246.47
2023-04-26T13:22:43.368Z,100243.50
2023-04-26T13:25:11.300Z,100249.12
2023-04-26T13:27:39.373Z,100245.25
2023-04-26T13:30:07.904Z,100244.72
2023-04-26T13:32:36.058Z,100239.34
2023-04-26T13:35:04.457Z,100263.41
2023-04-26T13:37:32.792Z,100260.09
2023-04-26T13:40:01.143Z,100256.66
2023-04-26T13:42:29.003Z,100254.72
2023-04-26T13:44:56.976Z,100252.69
2023-04-26T13:47:24.525Z,100209.06
2023-04-26T13:49:52.439Z,100251.84
2023-04-26T13:52:20.255Z,100260.75
2023-04-26T13:54:47.776Z,100276.00
2023-04-26T13:57:16.060Z,100276.88
2023-04-26T13:59:44.546Z,100272.13
2023-04-26T14:02:15.595Z,100272.62
2023-04-26T14:04:44.286Z,100272.59
2023-04-26T14:07:11.982Z,100273.12
2023-04-26T14:09:39.538Z,100264.72
2023-04-26T14:12:08.913Z,100294.25
2023-04-26T14:14:37.166Z,100279.22
2023-04-26T14:17:04.642Z,100290.72
2023-04-26T14:19:32.545Z,100278.19
2023-04-26T14:22:00.151Z,100278.63
2023-04-26T14:24:27.648Z,100288.56
2023-04-26T14:26:55.421Z,100250.75
2023-04-26T14:29:23.003Z,100283.09
2023-04-26T14:31:50.946Z,100294.25
2023-04-26T14:34:18.743Z,100310.03
2023-04-26T14:36:46.418Z,100304.56
2023-04-26T14:39:14.069Z,100303.53
2023-04-26T14:41:42.628Z,100301.03
2023-04-26T14:44:10.635Z,100303.84
2023-04-26T14:46:38.672Z,100310.12
2023-04-26T14:49:06.885Z,100269.12
2023-04-26T14:51:34.451Z,100328.50
2023-04-26T14:54:02.089Z,100274.78
2023-04-26T14:56:34.455Z,100283.38
2023-04-26T14:59:03.790Z,100332.13
2023-04-26T15:01:31.729Z,100323.22
2023-04-26T15:04:00.858Z,100325.84
2023-04-26T15:06:29.085Z,100332.66
2023-04-26T15:08:56.877Z,100334.63
2023-04-26T15:11:24.641Z,100290.31
2023-04-26T15:13:52.560Z,100334.50
2023-04-26T15:16:20.381Z,100329.34
2023-04-26T15:18:47.948Z,100342.22
2023-04-26T15:21:19.624Z,100304.75
2023-04-26T15:23:47.804Z,100293.50
2023-04-26T15:26:15.328Z,100346.31
2023-04-26T15:28:42.764Z,100340.91
2023-04-26T15:31:11.455Z,100350.84
2023-04-26T15:33:39.073Z,100356.13
2023-04-26T15:36:07.089Z,100344.72
2023-04-26T15:38:35.377Z,100342.91
2023-04-26T15:41:03.077Z,100297.19
2023-04-26T15:43:30.672Z,100347.69
2023-04-26T15:45:58.532Z,100351.00
2023-04-26T15:48:26.495Z,100340.75
2023-04-26T15:50:54.114Z,100355.94
2023-04-26T15:53:22.043Z,100351.16
2023-04-26T15:55:50.515Z,100335.44
2023-04-26T15:58:18.111Z,100350.00
2023-04-26T16:00:45.931Z,100349.19
2023-04-26T16:03:14.019Z,100350.00
2023-04-26T16:05:41.513Z,100361.25
2023-04-26T16:08:09.040Z,100366.47
2023-04-26T16:10:38.399Z,100353.91
2023-04-26T16:13:06.103Z,100355.72
2023-04-26T16:15:33.498Z,100357.97
2023-04-26T16:18:01.267Z,100359.00
2023-04-26T16:20:28.781Z,100353.44
2023-04-26T16:22:56.468Z,100361.88
2023-04-26T16:25:24.203Z,100366.81
2023-04-26T16:27:51.700Z,100375.81
2023-04-26T16:30:19.482Z,100372.22
2023-04-26T16:32:47.316Z,100371.78
2023-04-26T16:35:15.072Z,100376.00
2023-04-26T16:37:44.334Z,100381.75
2023-04-26T16:40:13.499Z,100336.19
2023-04-26T16:42:43.338Z,100384.69
2023-04-26T16:45:14.747Z,100385.81
2023-04-26T16:47:44.118Z,100396.37
2023-04-26T16:50:11.996Z,100395.81
2023-04-26T16:52:39.658Z,100388.31
2023-04-26T16:55:08.743Z,100394.00
2023-04-26T16:57:36.263Z,100403.37
2023-04-26T17:00:07.527Z,100397.59
2023-04-26T17:02:40.475Z,100398.28
2023-04-26T17:05:09.479Z,100418.19
2023-04-26T17:07:37.530Z,100406.75
2023-04-26T17:10:07.446Z,100413.97
2023-04-26T17:12:35.021Z,100424.78
2023-04-26T17:15:04.630Z,100430.41
2023-04-26T17:17:32.804Z,100424.44
2023-04-26T17:20:06.434Z,100432.16
2023-04-26T17:22:34.916Z,100429.25
2023-04-26T17:25:02.354Z,100441.66
2023-04-26T17:27:30.134Z,100394.81
2023-04-26T17:29:58.024Z,100452.25
2023-04-26T17:32:25.579Z,100447.69
2023-04-26T17:34:53.121Z,100442.59
2023-04-26T17:37:21.383Z,100406.25
2023-04-26T17:39:56.872Z,100457.28
2023-04-26T17:42:24.846Z,100463.56
2023-04-26T17:44:52.661Z,100460.37
2023-04-26T17:47:20.265Z,100468.03
2023-04-26T17:49:47.942Z,100421.38
2023-04-26T17:52:17.217Z,100466.91
2023-04-26T17:54:44.643Z,100482.72
2023-04-26T17:57:12.442Z,100472.03
2023-04-26T17:59:40.168Z,100429.66
2023-04-26T18:02:07.881Z,100485.06
2023-04-26T18:04:36.198Z,100488.37
2023-04-26T18:07:04.361Z,100487.81
2023-04-26T18:09:32.068Z,100492.22
2023-04-26T18:12:00.058Z,100493.75
2023-04-26T18:14:27.975Z,100497.59
2023-04-26T18:16:55.763Z,100503.62
2023-04-26T18:19:23.761Z,100503.50
2023-04-26T18:21:52.613Z,100464.66
2023-04-26T18:24:20.152Z,100506.75
2023-04-26T18:26:47.958Z,100509.62
2023-04-26T18:29:15.604Z,100517.09
2023-04-26T18:31:43.989Z,100480.87
2023-04-26T18:34:11.900Z,100530.84
2023-04-26T18:36:39.415Z,100530.25
2023-04-26T18:39:06.963Z,100528.72
2023-04-26T18:41:34.890Z,100532.97
2023-04-26T18:44:02.832Z,100528.97
2023-04-26T18:46:31.041Z,100486.62
2023-04-26T18:48:59.020Z,100537.06
2023-04-26T18:51:26.758Z,100498.72
2023-04-26T18:53:54.283Z,100542.81
2023-04-26T18:56:22.604Z,100547.62
2023-04-26T18:58:50.735Z,100547.44
2023-04-26T19:01:19.027Z,100557.59
2023-04-26T19:03:48.570Z,100547.16
2023-04-26T19:06:16.580Z,100555.78
2023-04-26T19:08:44.917Z,100560.56
2023-04-26T19:11:13.311Z,100510.03
2023-04-26T19:13:41.513Z,100563.44
2023-04-26T19:16:10.041Z,100567.16
2023-04-26T19:18:40.530Z,100556.00
2023-04-26T19:21:09.384Z,100521.25
2023-04-26T19:23:38.406Z,100566.59
2023-04-26T19:26:08.313Z,100577.47
2023-04-26T19:28:37.594Z,100585.34
2023-04-26T19:31:06.033Z,100584.16
2023-04-26T19:33:34.140Z,100578.94
2023-04-26T19:36:01.894Z,100583.56
2023-04-26T19:38:29.845Z,100589.66
2023-04-26T19:40:57.865Z,100584.31
2023-04-26T19:43:26.223Z,100589.06
2023-04-26T19:45:54.131Z,100569.94
2023-04-26T19:48:22.423Z,100593.97
2023-04-26T19:50:50.347Z,100587.53
2023-04-26T19:53:18.536Z,100538.94
2023-04-26T19:55:46.651Z,100593.37
2023-04-26T19:58:14.677Z,100591.59
2023-04-26T20:00:42.670Z,100596.81
2023-04-26T20:03:11.425Z,100592.06
2023-04-26T20:05:39.461Z,100602.87
2023-04-26T20:08:07.281Z,100599.69
2023-04-26T20:10:35.348Z,100596.31
2023-04-26T20:13:03.227Z,100598.22
2023-04-26T20:15:32.336Z,100591.69
2023-04-26T20:18:02.404Z,100554.38
2023-04-26T20:20:30.139Z,100598.69
2023-04-26T20:22:57.862Z,100596.53
2023-04-26T20:25:26.127Z,100599.97
2023-04-26T20:27:54.028Z,100601.19
2023-04-26T20:30:21.971Z,100601.47
2023-04-26T20:32:50.098Z,100599.09
2023-04-26T20:35:18.026Z,100600.63
2023-04-26T20:37:45.973Z,100601.19
2023-04-26T20:40:13.869Z,100595.56
2023-04-26T20:42:41.387Z,100597.28
2023-04-26T20:45:09.693Z,100598.12
2023-04-26T20:47:37.802Z,100546.91
2023-04-26T20:50:06.081Z,100606.81
2023-04-26T20:52:33.895Z,100563.22
2023-04-26T20:55:01.993Z,100556.53
2023-04-26T20:57:29.569Z,100606.47
2023-04-26T20:59:57.074Z,100603.84
2023-04-26T21:02:25.289Z,100566.88
2023-04-26T21:04:53.072Z,100606.91
2023-04-26T21:07:20.748Z,100525.00
2023-04-26T21:09:49.239Z,100608.66
2023-04-26T21:12:16.746Z,100595.28
2023-04-26T21:14:45.902Z,100615.56
2023-04-26T21:17:14.695Z,100604.31
2023-04-26T21:19:42.718Z,100620.59
2023-04-26T21:22:10.617Z,100612.75
2023-04-26T21:24:38.592Z,100621.66
2023-04-26T21:27:06.117Z,100620.22
2023-04-26T21:29:34.311Z,100613.97
2023-04-26T21:32:02.097Z,100616.37
2023-04-26T21:34:29.563Z,100623.50
2023-04-26T21:36:57.054Z,100628.00
2023-04-26T21:39:24.929Z,100628.94
2023-04-26T21:41:52.447Z,100624.66
2023-04-26T21:44:20.057Z,100631.13
2023-04-26T21:46:47.836Z,100639.09
2023-04-26T21:49:16.326Z,100632.19
2023-04-26T21:51:43.803Z,100637.84
2023-04-26T21:54:11.678Z,100543.94
2023-04-26T21:56:39.197Z,100638.62
2023-04-26T21:59:08.213Z,100634.44
2023-04-26T22:01:36.212Z,100635.38
2023-04-26T22:04:04.259Z,100638.19
2023-04-26T22:06:31.871Z,100592.06
2023-04-26T22:08:59.451Z,100646.06
2023-04-26T22:11:27.480Z,100646.38
2023-04-26T22:13:55.466Z,100642.53
2023-04-26T22:16:22.983Z,100650.97
2023-04-26T22:18:50.717Z,100653.87
2023-04-26T22:21:18.250Z,100650.09
2023-04-26T22:23:45.972Z,100648.53
2023-04-26T22:26:13.747Z,100645.19
2023-04-26T22:28:41.549Z,100651.47
2023-04-26T22:31:09.165Z,100660.53
2023-04-26T22:33:37.168Z,100655.91
2023-04-26T22:36:05.620Z,100660.44
2023-04-26T22:38:33.346Z,100673.38
2023-04-26T22:41:01.243Z,100617.78
2023-04-26T22:43:28.840Z,100668.16
2023-04-26T22:45:56.343Z,100635.97
2023-04-26T22:48:24.033Z,100665.00
2023-04-26T22:50:51.498Z,100667.09
2023-04-26T22:53:19.894Z,100668.25
2023-04-26T22:55:47.658Z,100675.88
2023-04-26T22:58:17.194Z,100676.38
2023-04-26T23:00:44.785Z,100672.09
2023-04-26T23:03:12.623Z,100676.66
2023-04-26T23:05:40.356Z,100680.22
2023-04-26T23:08:07.848Z,100687.75
2023-04-26T23:10:35.771Z,100635.28
2023-04-26T23:13:03.849Z,100687.94
2023-04-26T23:15:32.074Z,100687.31
2023-04-26T23:18:00.822Z,100689.50
2023-04-26T23:20:28.931Z,100688.53
2023-04-26T23:22:56.362Z,100700.91
2023-04-26T23:25:24.206Z,100636.03
2023-04-26T23:27:51.839Z,100692.84
2023-04-26T23:30:19.408Z,100693.09
2023-04-26T23:32:47.305Z,100695.63
2023-04-26T23:35:15.110Z,100695.16
2023-04-26T23:37:42.668Z,100695.75
2023-04-26T23:40:11.271Z,100691.37
2023-04-26T23:42:38.799Z,100699.66
2023-04-26T23:45:07.906Z,100706.38
2023-04-26T23:47:35.909Z,100700.88
2023-04-26T23:50:03.580Z,100684.53
2023-04-26T23:52:31.249Z,100699.72
2023-04-26T23:54:59.202Z,100699.69
2023-04-26T23:57:26.787Z,100697.22
2023-04-26T23:59:54.374Z,100694.91
